sensor_id;sensor_type;location;lat;lon;timestamp;P1;durP1;ratioP1;P2;durP2;ratioP2
19645;SDS011;9971;52.446;13.452;2023-05-10T00:02:18;3.85;;;3.55;;
19645;SDS011;9971;52.446;13.452;2023-05-10T00:07:20;3.95;;;3.65;;
19645;SDS011;9971;52.446;13.452;2023-05-10T00:12:23;3.95;;;3.27;;
19645;SDS011;9971;52.446;13.452;2023-05-10T00:17:25;4.85;;;3.15;;
19645;SDS011;9971;52.446;13.452;2023-05-10T00:22:28;3.85;;;3.35;;
19645;SDS011;9971;52.446;13.452;2023-05-10T00:27:30;4.72;;;3.20;;
19645;SDS011;9971;52.446;13.452;2023-05-10T00:32:33;4.53;;;2.98;;
19645;SDS011;9971;52.446;13.452;2023-05-10T00:37:35;4.30;;;3.90;;
19645;SDS011;9971;52.446;13.452;2023-05-10T00:42:37;3.52;;;3.22;;
19645;SDS011;9971;52.446;13.452;2023-05-10T00:47:40;4.57;;;3.60;;
19645;SDS011;9971;52.446;13.452;2023-05-10T00:52:42;4.97;;;3.97;;
19645;SDS011;9971;52.446;13.452;2023-05-10T00:57:44;4.40;;;4.00;;
19645;SDS011;9971;52.446;13.452;2023-05-10T01:02:46;4.27;;;3.90;;
19645;SDS011;9971;52.446;13.452;2023-05-10T01:07:48;5.72;;;4.30;;
19645;SDS011;9971;52.446;13.452;2023-05-10T01:12:50;4.25;;;3.85;;
19645;SDS011;9971;52.446;13.452;2023-05-10T01:17:53;4.33;;;3.63;;
19645;SDS011;9971;52.446;13.452;2023-05-10T01:23:07;4.50;;;4.10;;
19645;SDS011;9971;52.446;13.452;2023-05-10T01:28:19;4.00;;;3.70;;
19645;SDS011;9971;52.446;13.452;2023-05-10T01:33:26;4.63;;;4.17;;
19645;SDS011;9971;52.446;13.452;2023-05-10T01:38:29;5.10;;;4.23;;
19645;SDS011;9971;52.446;13.452;2023-05-10T01:43:53;4.20;;;3.50;;
19645;SDS011;9971;52.446;13.452;2023-05-10T01:48:55;4.13;;;3.73;;
19645;SDS011;9971;52.446;13.452;2023-05-10T01:53:59;4.83;;;4.43;;
19645;SDS011;9971;52.446;13.452;2023-05-10T01:59:00;4.40;;;4.00;;
19645;SDS011;9971;52.446;13.452;2023-05-10T02:04:02;3.90;;;3.50;;
19645;SDS011;9971;52.446;13.452;2023-05-10T02:09:04;4.17;;;3.70;;
19645;SDS011;9971;52.446;13.452;2023-05-10T02:14:07;4.00;;;3.60;;
19645;SDS011;9971;52.446;13.452;2023-05-10T02:19:08;4.13;;;3.83;;
19645;SDS011;9971;52.446;13.452;2023-05-10T02:24:10;6.37;;;3.72;;
19645;SDS011;9971;52.446;13.452;2023-05-10T02:29:12;3.90;;;3.50;;
19645;SDS011;9971;52.446;13.452;2023-05-10T02:34:15;4.07;;;3.70;;
19645;SDS011;9971;52.446;13.452;2023-05-10T02:39:17;4.40;;;4.03;;
19645;SDS011;9971;52.446;13.452;2023-05-10T02:44:19;4.07;;;3.70;;
19645;SDS011;9971;52.446;13.452;2023-05-10T02:49:21;3.90;;;3.50;;
19645;SDS011;9971;52.446;13.452;2023-05-10T02:54:27;3.85;;;3.50;;
19645;SDS011;9971;52.446;13.452;2023-05-10T02:59:26;4.78;;;3.35;;
19645;SDS011;9971;52.446;13.452;2023-05-10T03:04:28;5.30;;;3.72;;
19645;SDS011;9971;52.446;13.452;2023-05-10T03:09:31;4.35;;;3.62;;
19645;SDS011;9971;52.446;13.452;2023-05-10T03:14:36;4.30;;;3.90;;
19645;SDS011;9971;52.446;13.452;2023-05-10T03:19:40;3.60;;;3.30;;
19645;SDS011;9971;52.446;13.452;2023-05-10T03:24:39;4.27;;;3.50;;
19645;SDS011;9971;52.446;13.452;2023-05-10T03:29:41;4.63;;;3.30;;
19645;SDS011;9971;52.446;13.452;2023-05-10T03:34:43;4.55;;;3.77;;
19645;SDS011;9971;52.446;13.452;2023-05-10T03:39:46;3.50;;;3.20;;
19645;SDS011;9971;52.446;13.452;2023-05-10T03:44:48;4.62;;;3.77;;
19645;SDS011;9971;52.446;13.452;2023-05-10T03:49:50;3.50;;;3.08;;
19645;SDS011;9971;52.446;13.452;2023-05-10T03:54:53;4.37;;;3.00;;
19645;SDS011;9971;52.446;13.452;2023-05-10T03:59:56;3.72;;;3.42;;
19645;SDS011;9971;52.446;13.452;2023-05-10T04:04:58;4.40;;;3.33;;
19645;SDS011;9971;52.446;13.452;2023-05-10T04:10:01;3.80;;;3.40;;
19645;SDS011;9971;52.446;13.452;2023-05-10T04:15:03;3.37;;;2.98;;
19645;SDS011;9971;52.446;13.452;2023-05-10T04:20:06;3.40;;;3.10;;
19645;SDS011;9971;52.446;13.452;2023-05-10T04:25:09;3.58;;;3.27;;
19645;SDS011;9971;52.446;13.452;2023-05-10T04:30:11;3.45;;;3.15;;
19645;SDS011;9971;52.446;13.452;2023-05-10T04:35:14;3.30;;;3.00;;
19645;SDS011;9971;52.446;13.452;2023-05-10T04:40:17;5.15;;;4.62;;
19645;SDS011;9971;52.446;13.452;2023-05-10T04:45:19;4.80;;;3.45;;
19645;SDS011;9971;52.446;13.452;2023-05-10T04:50:22;3.40;;;2.92;;
19645;SDS011;9971;52.446;13.452;2023-05-10T04:55:24;3.60;;;3.02;;
19645;SDS011;9971;52.446;13.452;2023-05-10T05:00:27;4.87;;;3.08;;
19645;SDS011;9971;52.446;13.452;2023-05-10T05:05:29;3.27;;;2.98;;
19645;SDS011;9971;52.446;13.452;2023-05-10T05:10:32;3.22;;;2.92;;
19645;SDS011;9971;52.446;13.452;2023-05-10T05:15:34;2.70;;;2.50;;
19645;SDS011;9971;52.446;13.452;2023-05-10T05:20:37;4.00;;;2.95;;
19645;SDS011;9971;52.446;13.452;2023-05-10T05:25:39;2.72;;;2.50;;
19645;SDS011;9971;52.446;13.452;2023-05-10T05:30:41;3.08;;;2.72;;
19645;SDS011;9971;52.446;13.452;2023-05-10T05:35:44;2.62;;;2.42;;
19645;SDS011;9971;52.446;13.452;2023-05-10T05:40:46;2.62;;;2.40;;
19645;SDS011;9971;52.446;13.452;2023-05-10T05:45:49;2.80;;;2.58;;
19645;SDS011;9971;52.446;13.452;2023-05-10T05:50:54;3.67;;;2.60;;
19645;SDS011;9971;52.446;13.452;2023-05-10T05:55:56;2.60;;;2.40;;
19645;SDS011;9971;52.446;13.452;2023-05-10T06:00:58;2.47;;;2.27;;
19645;SDS011;9971;52.446;13.452;2023-05-10T06:06:00;4.25;;;2.40;;
19645;SDS011;9971;52.446;13.452;2023-05-10T06:11:03;2.35;;;2.15;;
19645;SDS011;9971;52.446;13.452;2023-05-10T06:16:05;3.55;;;2.20;;
19645;SDS011;9971;52.446;13.452;2023-05-10T06:21:08;2.37;;;2.17;;
19645;SDS011;9971;52.446;13.452;2023-05-10T06:26:10;1.82;;;1.72;;
19645;SDS011;9971;52.446;13.452;2023-05-10T06:31:13;3.72;;;2.27;;
19645;SDS011;9971;52.446;13.452;2023-05-10T06:36:15;2.13;;;1.97;;
19645;SDS011;9971;52.446;13.452;2023-05-10T06:41:18;4.37;;;1.82;;
19645;SDS011;9971;52.446;13.452;2023-05-10T06:46:20;2.15;;;2.00;;
19645;SDS011;9971;52.446;13.452;2023-05-10T06:51:22;2.62;;;1.82;;
19645;SDS011;9971;52.446;13.452;2023-05-10T06:56:25;2.55;;;2.22;;
19645;SDS011;9971;52.446;13.452;2023-05-10T07:01:27;2.22;;;2.00;;
19645;SDS011;9971;52.446;13.452;2023-05-10T07:06:30;4.05;;;2.02;;
19645;SDS011;9971;52.446;13.452;2023-05-10T07:11:32;2.52;;;2.05;;
19645;SDS011;9971;52.446;13.452;2023-05-10T07:16:35;4.95;;;2.10;;
19645;SDS011;9971;52.446;13.452;2023-05-10T07:21:37;2.47;;;1.75;;
19645;SDS011;9971;52.446;13.452;2023-05-10T07:26:40;1.95;;;1.85;;
19645;SDS011;9971;52.446;13.452;2023-05-10T07:31:42;2.05;;;1.87;;
19645;SDS011;9971;52.446;13.452;2023-05-10T07:36:45;3.67;;;2.10;;
19645;SDS011;9971;52.446;13.452;2023-05-10T07:41:47;1.95;;;1.82;;
19645;SDS011;9971;52.446;13.452;2023-05-10T07:46:49;1.90;;;1.77;;
19645;SDS011;9971;52.446;13.452;2023-05-10T07:51:52;2.10;;;1.90;;
19645;SDS011;9971;52.446;13.452;2023-05-10T07:56:54;1.87;;;1.75;;
19645;SDS011;9971;52.446;13.452;2023-05-10T08:01:57;2.80;;;1.80;;
19645;SDS011;9971;52.446;13.452;2023-05-10T08:06:59;3.47;;;1.80;;
19645;SDS011;9971;52.446;13.452;2023-05-10T08:12:02;2.50;;;1.85;;
19645;SDS011;9971;52.446;13.452;2023-05-10T08:17:04;2.30;;;2.10;;
19645;SDS011;9971;52.446;13.452;2023-05-10T08:22:07;3.42;;;1.90;;
19645;SDS011;9971;52.446;13.452;2023-05-10T08:27:09;2.42;;;2.22;;
19645;SDS011;9971;52.446;13.452;2023-05-10T08:32:12;2.17;;;1.97;;
19645;SDS011;9971;52.446;13.452;2023-05-10T08:37:14;1.85;;;1.70;;
19645;SDS011;9971;52.446;13.452;2023-05-10T08:42:19;2.40;;;1.90;;
19645;SDS011;9971;52.446;13.452;2023-05-10T08:47:18;2.53;;;1.73;;
19645;SDS011;9971;52.446;13.452;2023-05-10T08:52:21;1.98;;;1.87;;
19645;SDS011;9971;52.446;13.452;2023-05-10T08:57:23;1.97;;;1.80;;
19645;SDS011;9971;52.446;13.452;2023-05-10T09:02:25;2.83;;;1.82;;
19645;SDS011;9971;52.446;13.452;2023-05-10T09:07:29;3.13;;;2.03;;
19645;SDS011;9971;52.446;13.452;2023-05-10T09:12:32;4.27;;;1.97;;
19645;SDS011;9971;52.446;13.452;2023-05-10T09:17:34;2.53;;;1.80;;
19645;SDS011;9971;52.446;13.452;2023-05-10T09:22:36;1.97;;;1.63;;
19645;SDS011;9971;52.446;13.452;2023-05-10T09:27:39;2.08;;;1.90;;
19645;SDS011;9971;52.446;13.452;2023-05-10T09:32:41;2.07;;;1.97;;
19645;SDS011;9971;52.446;13.452;2023-05-10T09:37:43;2.13;;;1.93;;
19645;SDS011;9971;52.446;13.452;2023-05-10T09:42:51;1.87;;;1.77;;
19645;SDS011;9971;52.446;13.452;2023-05-10T09:47:55;2.37;;;2.00;;
19645;SDS011;9971;52.446;13.452;2023-05-10T09:52:58;1.80;;;1.70;;
19645;SDS011;9971;52.446;13.452;2023-05-10T09:58:00;2.08;;;1.90;;
19645;SDS011;9971;52.446;13.452;2023-05-10T10:03:01;2.00;;;1.80;;
19645;SDS011;9971;52.446;13.452;2023-05-10T10:08:03;2.17;;;1.92;;
19645;SDS011;9971;52.446;13.452;2023-05-10T10:13:05;1.67;;;1.57;;
19645;SDS011;9971;52.446;13.452;2023-05-10T10:18:07;2.17;;;1.98;;
19645;SDS011;9971;52.446;13.452;2023-05-10T10:23:09;2.00;;;1.90;;
19645;SDS011;9971;52.446;13.452;2023-05-10T10:33:28;1.80;;;1.70;;
19645;SDS011;9971;52.446;13.452;2023-05-10T10:49:16;2.20;;;1.67;;
19645;SDS011;9971;52.446;13.452;2023-05-10T10:54:28;2.10;;;1.75;;
19645;SDS011;9971;52.446;13.452;2023-05-10T10:59:27;3.03;;;1.80;;
19645;SDS011;9971;52.446;13.452;2023-05-10T11:04:29;3.87;;;1.80;;
19645;SDS011;9971;52.446;13.452;2023-05-10T11:09:31;2.27;;;2.10;;
19645;SDS011;9971;52.446;13.452;2023-05-10T11:14:33;1.60;;;1.50;;
19645;SDS011;9971;52.446;13.452;2023-05-10T11:19:36;1.92;;;1.62;;
19645;SDS011;9971;52.446;13.452;2023-05-10T11:24:38;2.63;;;1.63;;
19645;SDS011;9971;52.446;13.452;2023-05-10T11:29:40;1.72;;;1.55;;
19645;SDS011;9971;52.446;13.452;2023-05-10T11:34:42;3.77;;;1.70;;
19645;SDS011;9971;52.446;13.452;2023-05-10T11:39:45;2.00;;;1.70;;
19645;SDS011;9971;52.446;13.452;2023-05-10T11:44:46;2.13;;;1.90;;
19645;SDS011;9971;52.446;13.452;2023-05-10T11:49:49;1.85;;;1.50;;
19645;SDS011;9971;52.446;13.452;2023-05-10T11:54:51;1.87;;;1.72;;
19645;SDS011;9971;52.446;13.452;2023-05-10T11:59:53;2.10;;;1.83;;
19645;SDS011;9971;52.446;13.452;2023-05-10T12:04:55;2.43;;;2.00;;
19645;SDS011;9971;52.446;13.452;2023-05-10T12:10:13;2.13;;;1.60;;
19645;SDS011;9971;52.446;13.452;2023-05-10T12:15:20;3.80;;;1.80;;
19645;SDS011;9971;52.446;13.452;2023-05-10T12:20:21;2.42;;;1.92;;
19645;SDS011;9971;52.446;13.452;2023-05-10T12:25:23;2.60;;;1.80;;
19645;SDS011;9971;52.446;13.452;2023-05-10T12:30:26;1.83;;;1.70;;
19645;SDS011;9971;52.446;13.452;2023-05-10T12:35:30;2.37;;;1.70;;
19645;SDS011;9971;52.446;13.452;2023-05-10T12:40:31;2.20;;;1.83;;
19645;SDS011;9971;52.446;13.452;2023-05-10T12:45:33;3.75;;;1.90;;
19645;SDS011;9971;52.446;13.452;2023-05-10T12:50:36;1.82;;;1.60;;
19645;SDS011;9971;52.446;13.452;2023-05-10T12:55:38;2.20;;;1.70;;
19645;SDS011;9971;52.446;13.452;2023-05-10T13:00:41;3.45;;;1.50;;
19645;SDS011;9971;52.446;13.452;2023-05-10T13:05:43;2.57;;;1.90;;
19645;SDS011;9971;52.446;13.452;2023-05-10T13:10:46;1.77;;;1.67;;
19645;SDS011;9971;52.446;13.452;2023-05-10T13:15:48;1.62;;;1.52;;
19645;SDS011;9971;52.446;13.452;2023-05-10T13:20:51;3.12;;;1.90;;
19645;SDS011;9971;52.446;13.452;2023-05-10T13:25:53;2.62;;;1.70;;
19645;SDS011;9971;52.446;13.452;2023-05-10T13:30:56;1.75;;;1.62;;
19645;SDS011;9971;52.446;13.452;2023-05-10T13:35:58;1.92;;;1.60;;
19645;SDS011;9971;52.446;13.452;2023-05-10T13:41:01;3.05;;;1.80;;
19645;SDS011;9971;52.446;13.452;2023-05-10T13:46:03;1.72;;;1.62;;
19645;SDS011;9971;52.446;13.452;2023-05-10T13:51:06;2.30;;;1.55;;
19645;SDS011;9971;52.446;13.452;2023-05-10T13:56:10;4.00;;;1.70;;
19645;SDS011;9971;52.446;13.452;2023-05-10T14:01:17;1.43;;;1.33;;
19645;SDS011;9971;52.446;13.452;2023-05-10T14:06:21;7.60;;;1.43;;
19645;SDS011;9971;52.446;13.452;2023-05-10T14:11:24;1.63;;;1.50;;
19645;SDS011;9971;52.446;13.452;2023-05-10T14:16:27;2.70;;;1.77;;
19645;SDS011;9971;52.446;13.452;2023-05-10T14:21:30;2.08;;;1.85;;
19645;SDS011;9971;52.446;13.452;2023-05-10T14:26:34;3.10;;;1.63;;
19645;SDS011;9971;52.446;13.452;2023-05-10T14:31:36;2.62;;;1.85;;
19645;SDS011;9971;52.446;13.452;2023-05-10T14:36:40;2.65;;;1.60;;
19645;SDS011;9971;52.446;13.452;2023-05-10T14:41:42;2.27;;;1.97;;
19645;SDS011;9971;52.446;13.452;2023-05-10T14:46:45;2.20;;;1.57;;
19645;SDS011;9971;52.446;13.452;2023-05-10T14:51:47;3.05;;;1.70;;
19645;SDS011;9971;52.446;13.452;2023-05-10T14:56:49;2.55;;;1.87;;
19645;SDS011;9971;52.446;13.452;2023-05-10T15:01:52;2.58;;;1.57;;
19645;SDS011;9971;52.446;13.452;2023-05-10T15:06:54;1.95;;;1.60;;
19645;SDS011;9971;52.446;13.452;2023-05-10T15:11:57;2.08;;;1.40;;
19645;SDS011;9971;52.446;13.452;2023-05-10T15:17:00;3.08;;;1.47;;
19645;SDS011;9971;52.446;13.452;2023-05-10T15:22:04;1.67;;;1.50;;
19645;SDS011;9971;52.446;13.452;2023-05-10T15:27:05;1.60;;;1.50;;
19645;SDS011;9971;52.446;13.452;2023-05-10T15:32:07;2.02;;;1.50;;
19645;SDS011;9971;52.446;13.452;2023-05-10T15:37:09;2.42;;;1.75;;
19645;SDS011;9971;52.446;13.452;2023-05-10T15:42:12;1.52;;;1.42;;
19645;SDS011;9971;52.446;13.452;2023-05-10T15:47:15;1.92;;;1.62;;
19645;SDS011;9971;52.446;13.452;2023-05-10T15:52:17;1.70;;;1.60;;
19645;SDS011;9971;52.446;13.452;2023-05-10T15:57:19;1.52;;;1.42;;
19645;SDS011;9971;52.446;13.452;2023-05-10T16:02:22;1.95;;;1.75;;
19645;SDS011;9971;52.446;13.452;2023-05-10T16:07:24;3.15;;;1.80;;
19645;SDS011;9971;52.446;13.452;2023-05-10T16:12:27;2.95;;;1.67;;
19645;SDS011;9971;52.446;13.452;2023-05-10T16:17:29;1.80;;;1.70;;
19645;SDS011;9971;52.446;13.452;2023-05-10T16:22:32;1.90;;;1.70;;
19645;SDS011;9971;52.446;13.452;2023-05-10T16:27:34;1.70;;;1.60;;
19645;SDS011;9971;52.446;13.452;2023-05-10T16:32:37;3.90;;;2.62;;
19645;SDS011;9971;52.446;13.452;2023-05-10T16:37:39;4.20;;;2.83;;
19645;SDS011;9971;52.446;13.452;2023-05-10T16:42:42;3.20;;;2.90;;
19645;SDS011;9971;52.446;13.452;2023-05-10T16:47:44;2.75;;;2.50;;
19645;SDS011;9971;52.446;13.452;2023-05-10T16:52:47;3.10;;;2.90;;
19645;SDS011;9971;52.446;13.452;2023-05-10T16:57:49;2.67;;;2.47;;
19645;SDS011;9971;52.446;13.452;2023-05-10T17:02:51;4.97;;;3.10;;
19645;SDS011;9971;52.446;13.452;2023-05-10T17:07:53;3.60;;;3.27;;
19645;SDS011;9971;52.446;13.452;2023-05-10T17:12:56;3.20;;;3.00;;
19645;SDS011;9971;52.446;13.452;2023-05-10T17:17:58;4.83;;;2.98;;
19645;SDS011;9971;52.446;13.452;2023-05-10T17:23:01;3.30;;;3.08;;
19645;SDS011;9971;52.446;13.452;2023-05-10T17:28:04;3.10;;;2.80;;
19645;SDS011;9971;52.446;13.452;2023-05-10T17:33:07;2.95;;;2.75;;
19645;SDS011;9971;52.446;13.452;2023-05-10T17:38:09;3.22;;;2.60;;
19645;SDS011;9971;52.446;13.452;2023-05-10T17:43:12;1.82;;;1.72;;
19645;SDS011;9971;52.446;13.452;2023-05-10T17:48:14;2.05;;;1.85;;
19645;SDS011;9971;52.446;13.452;2023-05-10T17:53:17;1.60;;;1.50;;
19645;SDS011;9971;52.446;13.452;2023-05-10T17:58:20;1.50;;;1.40;;
19645;SDS011;9971;52.446;13.452;2023-05-10T18:03:22;1.40;;;1.32;;
19645;SDS011;9971;52.446;13.452;2023-05-10T18:08:24;1.17;;;1.07;;
19645;SDS011;9971;52.446;13.452;2023-05-10T18:13:27;1.17;;;1.15;;
19645;SDS011;9971;52.446;13.452;2023-05-10T18:18:30;1.82;;;1.72;;
19645;SDS011;9971;52.446;13.452;2023-05-10T18:23:33;1.60;;;1.50;;
19645;SDS011;9971;52.446;13.452;2023-05-10T18:28:35;1.85;;;1.60;;
19645;SDS011;9971;52.446;13.452;2023-05-10T18:33:38;1.57;;;1.47;;
19645;SDS011;9971;52.446;13.452;2023-05-10T18:38:40;1.00;;;1.00;;
19645;SDS011;9971;52.446;13.452;2023-05-10T18:43:43;0.42;;;0.42;;
19645;SDS011;9971;52.446;13.452;2023-05-10T18:48:46;0.45;;;0.45;;
19645;SDS011;9971;52.446;13.452;2023-05-10T18:53:49;0.37;;;0.37;;
19645;SDS011;9971;52.446;13.452;2023-05-10T18:58:51;0.10;;;0.10;;
19645;SDS011;9971;52.446;13.452;2023-05-10T19:03:54;0.30;;;0.30;;
19645;SDS011;9971;52.446;13.452;2023-05-10T19:08:57;0.37;;;0.37;;
19645;SDS011;9971;52.446;13.452;2023-05-10T19:13:59;0.20;;;0.20;;
19645;SDS011;9971;52.446;13.452;2023-05-10T19:19:01;0.20;;;0.20;;
19645;SDS011;9971;52.446;13.452;2023-05-10T19:24:04;0.00;;;0.00;;
19645;SDS011;9971;52.446;13.452;2023-05-10T19:29:07;0.10;;;0.10;;
19645;SDS011;9971;52.446;13.452;2023-05-10T19:34:10;0.23;;;0.23;;
19645;SDS011;9971;52.446;13.452;2023-05-10T19:39:12;0.10;;;0.10;;
19645;SDS011;9971;52.446;13.452;2023-05-10T19:44:15;0.20;;;0.20;;
19645;SDS011;9971;52.446;13.452;2023-05-10T19:49:17;0.28;;;0.28;;
19645;SDS011;9971;52.446;13.452;2023-05-10T19:54:20;0.30;;;0.30;;
19645;SDS011;9971;52.446;13.452;2023-05-10T19:59:22;0.30;;;0.30;;
19645;SDS011;9971;52.446;13.452;2023-05-10T20:04:25;0.35;;;0.35;;
19645;SDS011;9971;52.446;13.452;2023-05-10T20:09:28;0.60;;;0.60;;
19645;SDS011;9971;52.446;13.452;2023-05-10T20:14:30;1.40;;;0.57;;
19645;SDS011;9971;52.446;13.452;2023-05-10T20:19:33;0.70;;;0.70;;
19645;SDS011;9971;52.446;13.452;2023-05-10T20:24:35;0.42;;;0.42;;
19645;SDS011;9971;52.446;13.452;2023-05-10T20:29:38;0.55;;;0.55;;
19645;SDS011;9971;52.446;13.452;2023-05-10T20:34:40;0.50;;;0.50;;
19645;SDS011;9971;52.446;13.452;2023-05-10T20:39:43;0.70;;;0.70;;
19645;SDS011;9971;52.446;13.452;2023-05-10T20:44:45;0.60;;;0.60;;
19645;SDS011;9971;52.446;13.452;2023-05-10T20:49:48;0.68;;;0.68;;
19645;SDS011;9971;52.446;13.452;2023-05-10T20:54:50;0.70;;;0.70;;
19645;SDS011;9971;52.446;13.452;2023-05-10T20:59:52;0.72;;;0.72;;
19645;SDS011;9971;52.446;13.452;2023-05-10T21:04:55;0.80;;;0.80;;
19645;SDS011;9971;52.446;13.452;2023-05-10T21:09:57;0.85;;;0.85;;
19645;SDS011;9971;52.446;13.452;2023-05-10T21:15:00;0.60;;;0.60;;
19645;SDS011;9971;52.446;13.452;2023-05-10T21:20:03;0.80;;;0.80;;
19645;SDS011;9971;52.446;13.452;2023-05-10T21:25:05;0.60;;;0.60;;
19645;SDS011;9971;52.446;13.452;2023-05-10T21:30:11;0.90;;;0.90;;
19645;SDS011;9971;52.446;13.452;2023-05-10T21:35:14;0.50;;;0.50;;
19645;SDS011;9971;52.446;13.452;2023-05-10T21:40:17;1.00;;;1.00;;
19645;SDS011;9971;52.446;13.452;2023-05-10T21:45:19;0.68;;;0.68;;
19645;SDS011;9971;52.446;13.452;2023-05-10T21:50:22;0.80;;;0.80;;
19645;SDS011;9971;52.446;13.452;2023-05-10T21:55:25;0.80;;;0.80;;
19645;SDS011;9971;52.446;13.452;2023-05-10T22:00:27;0.82;;;0.82;;
19645;SDS011;9971;52.446;13.452;2023-05-10T22:05:30;0.60;;;0.60;;
19645;SDS011;9971;52.446;13.452;2023-05-10T22:10:32;0.53;;;0.53;;
19645;SDS011;9971;52.446;13.452;2023-05-10T22:15:35;6.72;;;5.65;;
19645;SDS011;9971;52.446;13.452;2023-05-10T22:20:37;7.17;;;6.47;;
19645;SDS011;9971;52.446;13.452;2023-05-10T22:25:40;8.18;;;7.30;;
19645;SDS011;9971;52.446;13.452;2023-05-10T22:55:43;6.15;;;5.55;;
19645;SDS011;9971;52.446;13.452;2023-05-10T23:00:45;5.40;;;5.00;;
19645;SDS011;9971;52.446;13.452;2023-05-10T23:05:47;6.92;;;6.22;;
19645;SDS011;9971;52.446;13.452;2023-05-10T23:10:50;7.58;;;6.87;;
19645;SDS011;9971;52.446;13.452;2023-05-10T23:15:52;7.10;;;6.40;;
19645;SDS011;9971;52.446;13.452;2023-05-10T23:20:55;6.22;;;5.65;;
19645;SDS011;9971;52.446;13.452;2023-05-10T23:25:57;7.50;;;6.03;;
19645;SDS011;9971;52.446;13.452;2023-05-10T23:31:00;7.40;;;6.70;;
19645;SDS011;9971;52.446;13.452;2023-05-10T23:36:02;7.30;;;6.70;;
19645;SDS011;9971;52.446;13.452;2023-05-10T23:41:05;7.10;;;6.45;;
19645;SDS011;9971;52.446;13.452;2023-05-10T23:46:07;7.10;;;6.50;;
19645;SDS011;9971;52.446;13.452;2023-05-10T23:51:09;8.33;;;7.53;;
